Time;durP1;ratioP1;P1;durP2;ratioP2;P2;SDS_P1;SDS_P2;PMS_P1;PMS_P2;Temp;Humidity;BMP_temperature;BMP_pressure;BME280_temperature;BME280_humidity;BME280_pressure;Samples;Min_cycle;Max_cycle;Signal;HPM_P1;HPM_P2
2022/12/01 00:02:19;;;;;;;;;51.50;40.50;;;;;8.30;64.47;102008.41;6340846;22;45215;-48
2022/12/01 00:04:47;;;;;;;;;52.75;38.25;;;;;8.25;64.29;101994.38;6340319;22;45131;-48
2022/12/01 00:07:12;;;;;;;;;53.25;39.25;;;;;8.26;64.56;102004.00;6338640;22;45268;-48
2022/12/01 00:12:21;;;;;;;;;51.25;39.25;;;;;8.21;64.45;102006.53;6340557;22;45295;-47
2022/12/01 00:14:53;;;;;;;;;54.50;37.50;;;;;8.16;64.38;101996.88;6340708;22;47616;-49
2022/12/01 00:17:19;;;;;;;;;52.50;39.50;;;;;8.19;64.35;102004.75;6340416;22;45384;-50
2022/12/01 00:19:44;;;;;;;;;52.25;42.50;;;;;8.14;64.67;102002.09;6340551;22;45124;-48
2022/12/01 00:22:10;;;;;;;;;50.75;38.00;;;;;8.14;64.53;102008.19;6340837;22;45261;-47
2022/12/01 00:24:35;;;;;;;;;52.50;39.25;;;;;8.12;64.47;102009.88;6338797;22;47262;-49
2022/12/01 00:27:00;;;;;;;;;55.00;40.50;;;;;8.13;64.42;102010.78;6340551;22;45216;-48
2022/12/01 00:29:26;;;;;;;;;54.67;43.33;;;;;8.11;64.65;102002.00;6340349;22;45334;-47
2022/12/01 00:31:51;;;;;;;;;55.00;43.75;;;;;8.11;64.48;102008.16;6340358;22;45266;-46
2022/12/01 00:34:23;;;;;;;;;52.00;41.00;;;;;8.11;64.81;102004.63;6340087;22;45903;-48
2022/12/01 00:36:48;;;;;;;;;53.00;41.00;;;;;8.10;64.72;102016.84;6339714;22;45146;-48
2022/12/01 00:39:13;;;;;;;;;50.00;39.25;;;;;8.11;64.55;102004.63;6340436;22;45666;-48
2022/12/01 00:41:38;;;;;;;;;51.75;41.25;;;;;8.10;64.62;102001.16;6340352;22;46720;-47
2022/12/01 00:44:04;;;;;;;;;49.00;37.50;;;;;8.11;64.88;102004.63;6340609;22;45210;-50
2022/12/01 00:46:30;;;;;;;;;52.25;42.25;;;;;8.11;64.51;101991.53;6338669;22;45263;-45
2022/12/01 00:48:55;;;;;;;;;53.75;42.00;;;;;8.09;64.70;101990.66;6340102;22;45133;-46
2022/12/01 00:51:20;;;;;;;;;54.00;41.75;;;;;8.10;64.74;102006.38;6340452;22;45464;-47
2022/12/01 00:53:46;;;;;;;;;54.00;40.00;;;;;8.08;64.71;101991.50;6339885;22;50902;-49
2022/12/01 00:56:11;;;;;;;;;52.75;41.50;;;;;8.05;64.72;101987.09;6340457;22;45348;-47
2022/12/01 00:58:37;;;;;;;;;51.50;40.25;;;;;8.08;64.51;101997.63;6340745;22;45281;-48
2022/12/01 01:01:02;;;;;;;;;56.25;42.75;;;;;8.06;64.54;102001.06;6339285;22;45207;-49
2022/12/01 01:03:28;;;;;;;;;54.00;41.75;;;;;8.01;64.59;101998.34;6340349;22;45372;-47
2022/12/01 01:05:54;;;;;;;;;44.75;37.00;;;;;8.01;64.65;102000.09;6340339;22;45370;-49
2022/12/01 01:08:19;;;;;;;;;56.00;41.00;;;;;7.98;64.66;102004.44;6337969;22;45722;-46
2022/12/01 01:10:46;;;;;;;;;56.25;42.75;;;;;7.96;64.43;102005.25;6325670;22;45310;-46
2022/12/01 01:13:13;;;;;;;;;50.25;40.50;;;;;7.92;64.34;101998.22;6332389;22;46116;-46
2022/12/01 01:15:39;;;;;;;;;52.50;40.50;;;;;7.92;64.52;102012.22;6336444;22;45167;-48
2022/12/01 01:18:05;;;;;;;;;54.00;40.50;;;;;7.89;64.54;102012.13;6335958;22;45278;-48
2022/12/01 01:20:31;;;;;;;;;52.50;40.25;;;;;7.86;64.53;102006.88;6336060;22;45211;-46
2022/12/01 01:22:56;;;;;;;;;52.25;40.25;;;;;7.85;64.50;102009.44;6335977;22;45532;-46
2022/12/01 01:25:22;;;;;;;;;55.25;40.50;;;;;7.79;64.36;102005.00;6336774;22;45352;-46
2022/12/01 01:27:47;;;;;;;;;54.00;42.50;;;;;7.79;64.34;102016.31;6337272;22;45427;-47
2022/12/01 01:30:13;;;;;;;;;51.00;40.00;;;;;7.75;64.54;102009.28;6335634;22;45488;-45
2022/12/01 01:32:39;;;;;;;;;54.50;42.50;;;;;7.71;64.45;102003.97;6336261;22;45412;-46
2022/12/01 01:35:04;;;;;;;;;53.00;41.00;;;;;7.72;64.43;102019.72;6335930;22;45253;-50
2022/12/01 01:37:30;;;;;;;;;57.75;42.50;;;;;7.69;64.22;102014.41;6335808;22;45328;-47
2022/12/01 01:39:55;;;;;;;;;50.25;40.00;;;;;7.66;64.52;102019.59;6335915;22;45404;-47
2022/12/01 01:42:20;;;;;;;;;56.25;43.25;;;;;7.62;64.53;102015.13;6335212;22;45384;-47
2022/12/01 01:44:46;;;;;;;;;54.75;41.00;;;;;7.60;64.57;102019.47;6339448;22;45413;-47
2022/12/01 01:47:12;;;;;;;;;54.25;41.25;;;;;7.56;64.33;102013.31;6337189;22;45356;-45
2022/12/01 01:49:39;;;;;;;;;54.50;40.50;;;;;7.55;64.56;102018.50;6341313;22;45200;-46
2022/12/01 01:52:04;;;;;;;;;52.25;38.75;;;;;7.52;64.50;102027.19;6339231;22;46159;-49
2022/12/01 01:54:34;;;;;;;;;54.00;42.00;;;;;7.53;64.24;102028.06;6341410;22;45264;-47
2022/12/01 01:57:03;;;;;;;;;53.25;39.50;;;;;7.48;64.74;102025.34;6340953;22;45277;-49
2022/12/01 01:59:51;;;;;;;;;52.75;40.25;;;;;7.51;64.70;102028.03;6340699;22;45150;-47
2022/12/01 02:02:17;;;;;;;;;53.25;42.25;;;;;7.52;64.60;102031.53;6341818;22;45471;-48
2022/12/01 02:04:47;;;;;;;;;53.25;41.00;;;;;7.52;64.69;102028.91;6341492;22;45315;-47
2022/12/01 02:07:16;;;;;;;;;56.75;41.75;;;;;7.52;64.87;102021.06;6341603;22;45243;-46
2022/12/01 02:09:42;;;;;;;;;45.00;35.25;;;;;7.55;64.77;102028.97;6340621;22;45516;-48
2022/12/01 02:12:13;;;;;;;;;53.50;41.25;;;;;7.57;64.74;102024.63;6340806;22;46121;-50
2022/12/01 02:15:19;;;;;;;;;50.50;38.50;;;;;7.55;64.93;102018.50;6341154;22;45231;-47
2022/12/01 02:17:53;;;;;;;;;50.75;38.25;;;;;7.61;64.95;102015.97;6341567;22;45177;-48
2022/12/01 02:20:27;;;;;;;;;47.75;37.75;;;;;7.63;64.74;102006.44;6339502;22;45212;-50
2022/12/01 02:23:28;;;;;;;;;47.50;38.25;;;;;7.68;64.81;102014.38;6341200;22;45160;-49
2022/12/01 02:26:31;;;;;;;;;49.00;40.25;;;;;7.58;64.63;101990.66;6340741;22;45255;-50
2022/12/01 02:29:15;;;;;;;;;53.00;40.75;;;;;7.70;64.75;102017.88;6341151;22;45484;-53
2022/12/01 02:31:55;;;;;;;;;52.25;40.50;;;;;7.73;65.08;102010.97;6341220;22;45453;-47
2022/12/01 02:34:29;;;;;;;;;44.00;33.25;;;;;7.73;65.17;102005.75;6341121;22;46095;-46
2022/12/01 02:37:04;;;;;;;;;51.25;38.25;;;;;7.77;64.93;102007.59;6341096;22;45257;-46
2022/12/01 02:39:51;;;;;;;;;51.75;38.25;;;;;7.79;65.06;102008.47;6340710;22;45215;-51
2022/12/01 02:45:19;;;;;;;;;48.50;38.25;;;;;7.83;65.20;102000.69;6341206;22;45647;-49
2022/12/01 02:47:45;;;;;;;;;36.50;31.00;;;;;7.85;64.82;102001.56;6339286;22;45327;-47
2022/12/01 02:50:12;;;;;;;;;54.00;39.75;;;;;7.86;64.90;101996.41;6340577;22;45385;-49
2022/12/01 02:52:39;;;;;;;;;50.25;38.00;;;;;7.86;64.97;101995.50;6340613;22;45343;-48
2022/12/01 02:55:05;;;;;;;;;48.75;40.00;;;;;7.89;65.07;102000.81;6340751;22;46793;-45
2022/12/01 02:57:30;;;;;;;;;52.50;40.75;;;;;7.85;65.09;101993.72;6340273;22;45227;-46
2022/12/01 02:59:57;;;;;;;;;49.25;38.25;;;;;7.87;64.97;101998.13;6340584;22;45153;-49
2022/12/01 03:02:47;;;;;;;;;51.25;40.25;;;;;7.92;64.81;102003.44;6341229;22;45384;-48
2022/12/01 03:05:19;;;;;;;;;49.00;37.75;;;;;7.93;64.93;102003.47;6340462;22;47377;-48
2022/12/01 03:07:45;;;;;;;;;51.50;41.00;;;;;7.94;65.12;101992.16;6340025;22;45206;-48
2022/12/01 03:10:16;;;;;;;;;50.50;40.50;;;;;7.96;65.06;102003.53;6340968;22;45260;-47
2022/12/01 03:13:19;;;;;;;;;50.25;40.00;;;;;7.96;64.93;101998.31;6338893;22;45937;-46
2022/12/01 03:16:16;;;;;;;;;49.75;37.00;;;;;7.97;65.01;101991.31;6340574;22;47204;-45
2022/12/01 03:18:56;;;;;;;;;51.75;38.00;;;;;7.98;65.00;101985.22;6340904;22;45361;-46
2022/12/01 03:21:32;;;;;;;;;49.00;38.00;;;;;7.96;64.87;101994.78;6341230;22;45306;-48
2022/12/01 03:24:05;;;;;;;;;56.00;44.00;;;;;7.97;64.84;101988.69;6340432;22;45263;-46
2022/12/01 03:26:34;;;;;;;;;54.75;41.00;;;;;8.00;64.78;101978.31;6339602;22;45265;-47
2022/12/01 03:29:07;;;;;;;;;51.00;41.50;;;;;7.90;64.72;101974.66;6341118;22;45195;-47
2022/12/01 03:31:39;;;;;;;;;53.00;39.00;;;;;7.99;64.69;101992.25;6341239;22;45165;-47
2022/12/01 03:34:23;;;;;;;;;51.00;37.50;;;;;7.96;64.71;101998.31;6340763;22;45246;-50
2022/12/01 03:37:18;;;;;;;;;48.25;37.25;;;;;7.94;64.83;101988.66;6340491;22;45266;-46
2022/12/01 03:39:46;;;;;;;;;52.50;40.75;;;;;7.95;64.81;101990.44;6341032;22;45302;-46
2022/12/01 03:42:22;;;;;;;;;53.25;39.75;;;;;7.90;64.71;101989.44;6340539;22;45335;-47
2022/12/01 03:44:52;;;;;;;;;49.75;36.25;;;;;7.95;65.03;101998.28;6341150;22;45201;-47
2022/12/01 03:47:23;;;;;;;;;50.50;37.50;;;;;7.96;64.73;102002.63;6338573;22;48439;-49
2022/12/01 03:49:51;;;;;;;;;50.75;41.00;;;;;7.96;64.92;101992.16;6340845;22;45217;-49
2022/12/01 03:52:38;;;;;;;;;51.25;40.50;;;;;7.94;64.91;101996.53;6340691;22;45449;-51
2022/12/01 03:55:09;;;;;;;;;52.25;40.00;;;;;7.97;64.91;101994.84;6340893;22;45342;-48
2022/12/01 03:57:52;;;;;;;;;47.75;40.00;;;;;7.97;65.02;101991.31;6338613;22;48078;-48
2022/12/01 04:00:18;;;;;;;;;51.00;37.75;;;;;7.97;65.01;102005.31;6339950;22;45286;-47
2022/12/01 04:02:44;;;;;;;;;57.00;41.00;;;;;7.97;65.06;101994.84;6340049;22;45267;-48
2022/12/01 04:05:09;;;;;;;;;52.00;37.75;;;;;7.99;64.89;102005.31;6339861;22;45209;-48
2022/12/01 04:07:36;;;;;;;;;56.00;40.50;;;;;8.00;64.91;101996.63;6340432;22;45274;-47
2022/12/01 04:10:01;;;;;;;;;39.00;35.75;;;;;8.02;64.66;101988.78;6339832;22;45387;-52
2022/12/01 04:12:31;;;;;;;;;49.50;39.75;;;;;8.03;64.99;101987.94;6340908;22;45259;-52
2022/12/01 04:15:09;;;;;;;;;56.00;41.00;;;;;8.04;64.51;101994.94;6340395;22;45174;-48
2022/12/01 04:17:34;;;;;;;;;50.00;38.50;;;;;8.02;64.79;101989.66;6340316;22;47150;-51
2022/12/01 04:20:00;;;;;;;;;48.50;37.25;;;;;8.04;64.71;101984.47;6340047;22;45254;-46
2022/12/01 04:22:25;;;;;;;;;53.50;42.00;;;;;8.05;64.87;101987.09;6340594;22;45220;-50
2022/12/01 04:24:51;;;;;;;;;58.75;42.50;;;;;8.03;64.69;101982.69;6338530;22;45192;-51
2022/12/01 04:27:18;;;;;;;;;51.25;37.50;;;;;8.06;64.96;101978.41;6340386;22;45394;-49
2022/12/01 04:29:43;;;;;;;;;53.75;41.50;;;;;8.07;64.86;101974.03;6340516;22;45241;-51
2022/12/01 04:32:09;;;;;;;;;54.50;41.25;;;;;8.08;64.93;101981.91;6340833;22;45240;-51
2022/12/01 04:34:34;;;;;;;;;54.25;40.50;;;;;8.08;64.93;101981.03;6340862;22;45273;-50
2022/12/01 04:37:00;;;;;;;;;51.50;39.25;;;;;8.09;64.90;101978.44;6340307;22;45271;-48
2022/12/01 04:39:25;;;;;;;;;49.50;37.25;;;;;8.11;64.79;101991.53;6339831;22;45288;-49
2022/12/01 04:41:50;;;;;;;;;49.50;40.50;;;;;8.09;64.92;101986.28;6337369;22;45196;-48
2022/12/01 04:44:16;;;;;;;;;56.25;40.00;;;;;8.11;64.90;101988.91;6320793;22;45986;-50
2022/12/01 04:46:41;;;;;;;;;56.50;43.00;;;;;8.11;64.83;101987.19;6336885;22;46011;-49
2022/12/01 04:49:07;;;;;;;;;59.00;42.00;;;;;8.13;64.71;101992.47;6336677;22;45861;-50
2022/12/01 04:51:32;;;;;;;;;54.25;40.50;;;;;8.11;64.98;101987.19;6336437;22;45831;-49
2022/12/01 04:53:57;;;;;;;;;53.00;42.00;;;;;8.11;64.70;101992.44;6336310;22;45631;-47
2022/12/01 04:56:23;;;;;;;;;53.00;40.00;;;;;8.13;64.84;101989.84;6336213;22;46099;-50
2022/12/01 04:58:48;;;;;;;;;49.00;38.25;;;;;8.13;64.95;101995.06;6336034;22;45368;-47
2022/12/01 05:01:16;;;;;;;;;45.75;37.50;;;;;8.10;64.89;101989.78;6337554;22;45404;-46
2022/12/01 05:03:44;;;;;;;;;45.50;34.25;;;;;8.09;64.90;101994.16;6334838;22;45393;-45
2022/12/01 05:06:12;;;;;;;;;55.00;39.50;;;;;8.10;64.72;101988.06;6335907;22;46106;-47
2022/12/01 05:08:37;;;;;;;;;50.75;39.50;;;;;8.07;64.82;101988.00;6336130;22;45309;-48
2022/12/01 05:11:05;;;;;;;;;51.25;39.75;;;;;8.11;64.87;101988.91;6335109;22;45732;-44
2022/12/01 05:13:30;;;;;;;;;50.25;40.25;;;;;8.10;64.58;101985.44;6336260;22;45447;-46
2022/12/01 05:16:07;;;;;;;;;53.75;38.25;;;;;8.11;64.83;101989.81;6338668;22;45321;-50
2022/12/01 05:18:32;;;;;;;;;50.00;37.75;;;;;8.06;64.71;101977.50;6338058;22;45420;-49
2022/12/01 05:20:58;;;;;;;;;52.50;40.75;;;;;8.08;64.84;101981.91;6340232;22;45255;-50
2022/12/01 05:23:29;;;;;;;;;46.50;38.25;;;;;8.08;64.76;101987.13;6339302;22;45444;-50
2022/12/01 05:25:55;;;;;;;;;56.75;42.25;;;;;8.08;64.76;101984.53;6339364;22;47069;-50
2022/12/01 05:28:23;;;;;;;;;53.50;39.25;;;;;8.07;64.67;101979.25;6341806;22;45479;-51
2022/12/01 05:30:49;;;;;;;;;48.25;36.50;;;;;8.06;64.90;101988.88;6341542;22;45269;-50
2022/12/01 05:33:14;;;;;;;;;51.50;39.75;;;;;8.07;64.74;101995.84;6341601;22;45336;-46
2022/12/01 05:35:40;;;;;;;;;50.75;41.00;;;;;8.07;64.72;101981.88;6341401;22;45329;-48
2022/12/01 05:38:05;;;;;;;;;55.75;37.25;;;;;8.07;64.79;101985.38;6338787;22;45255;-46
2022/12/01 05:40:31;;;;;;;;;46.50;38.50;;;;;8.06;64.47;101987.97;6341420;22;45300;-48
2022/12/01 05:42:57;;;;;;;;;47.50;39.50;;;;;8.05;64.71;101980.97;6341025;22;45316;-46
2022/12/01 05:45:23;;;;;;;;;45.75;37.50;;;;;8.02;64.57;101981.81;6341012;22;46123;-46
2022/12/01 05:47:49;;;;;;;;;52.00;38.00;;;;;8.05;64.81;101986.19;6339637;22;45395;-46
2022/12/01 05:50:15;;;;;;;;;49.25;39.75;;;;;8.05;64.83;101987.09;6339460;22;45164;-48
2022/12/01 05:52:40;;;;;;;;;48.00;36.75;;;;;8.03;64.72;101991.41;6341545;22;45215;-49
2022/12/01 05:55:06;;;;;;;;;52.50;37.75;;;;;8.04;64.75;102000.19;6339614;22;46182;-49
2022/12/01 05:57:32;;;;;;;;;50.00;40.00;;;;;8.04;64.73;102008.91;6341230;22;45228;-48
2022/12/01 05:59:58;;;;;;;;;51.25;36.75;;;;;8.03;64.71;102001.91;6340177;22;45329;-47
2022/12/01 06:02:25;;;;;;;;;52.00;39.25;;;;;8.04;64.61;102010.66;6341615;22;45275;-45
2022/12/01 06:04:51;;;;;;;;;54.00;41.00;;;;;8.03;64.89;102017.59;6340968;22;46150;-48
2022/12/01 06:07:16;;;;;;;;;54.50;42.25;;;;;8.04;64.56;102013.28;6339586;22;45274;-47
2022/12/01 06:09:41;;;;;;;;;49.00;38.25;;;;;8.04;64.65;102006.28;6340626;22;45846;-47
2022/12/01 06:12:07;;;;;;;;;49.75;38.75;;;;;8.05;64.48;102001.91;6341220;22;45082;-46
2022/12/01 06:14:32;;;;;;;;;50.50;37.25;;;;;8.04;64.63;102001.03;6340853;22;47147;-48
2022/12/01 06:16:57;;;;;;;;;53.75;37.50;;;;;8.06;64.67;102003.69;6340884;22;48104;-48
2022/12/01 06:19:23;;;;;;;;;50.00;37.00;;;;;8.03;64.70;101995.78;6341162;22;45085;-46
2022/12/01 06:21:48;;;;;;;;;50.50;37.25;;;;;8.05;64.49;102009.78;6340932;22;45415;-48
2022/12/01 06:24:13;;;;;;;;;52.50;41.50;;;;;8.03;64.44;102008.88;6340645;22;52390;-51
2022/12/01 06:26:38;;;;;;;;;55.25;41.00;;;;;8.04;64.67;102013.28;6341313;22;45268;-50
2022/12/01 06:29:04;;;;;;;;;54.25;43.50;;;;;8.05;64.40;102012.38;6340833;22;45194;-48
2022/12/01 06:31:29;;;;;;;;;52.25;40.75;;;;;8.00;64.83;102001.84;6341199;22;47208;-46
2022/12/01 06:33:54;;;;;;;;;54.75;38.75;;;;;8.02;64.49;102013.22;6339082;22;46068;-47
2022/12/01 06:36:20;;;;;;;;;55.50;41.00;;;;;8.03;64.31;102008.88;6341176;22;45352;-50
2022/12/01 06:38:45;;;;;;;;;39.75;34.75;;;;;8.02;64.55;102000.13;6341273;22;45294;-46
2022/12/01 06:41:10;;;;;;;;;49.50;38.00;;;;;8.02;64.61;102001.88;6340621;22;45429;-48
2022/12/01 06:43:36;;;;;;;;;50.75;40.00;;;;;8.02;64.61;102018.44;6340898;22;45069;-47
2022/12/01 06:46:03;;;;;;;;;46.50;36.00;;;;;8.02;64.42;102010.59;6340882;22;45457;-46
2022/12/01 06:48:30;;;;;;;;;53.25;38.00;;;;;8.01;64.49;102006.22;6339338;22;45315;-46
2022/12/01 06:50:57;;;;;;;;;49.25;40.00;;;;;7.99;64.35;102005.31;6340560;22;45238;-45
2022/12/01 06:53:22;;;;;;;;;51.75;38.25;;;;;8.00;64.42;102014.94;6340487;22;46296;-46
2022/12/01 06:55:47;;;;;;;;;51.25;39.50;;;;;8.00;64.43;102016.66;6341410;22;45193;-47
2022/12/01 06:58:13;;;;;;;;;56.50;43.00;;;;;7.95;64.62;102012.25;6341232;22;45354;-46
2022/12/01 07:00:38;;;;;;;;;51.75;42.75;;;;;7.98;64.34;102022.75;6340699;22;45143;-46
2022/12/01 07:03:03;;;;;;;;;58.50;43.00;;;;;7.98;64.13;102027.13;6341119;22;46160;-47
2022/12/01 07:05:29;;;;;;;;;50.00;40.50;;;;;7.97;64.31;102031.50;6340626;22;45183;-46
2022/12/01 07:07:54;;;;;;;;;50.25;40.75;;;;;7.95;64.47;102032.31;6340810;22;45162;-46
2022/12/01 07:10:19;;;;;;;;;46.75;38.00;;;;;7.93;64.36;102036.63;6340069;22;45204;-47
2022/12/01 07:12:45;;;;;;;;;54.75;40.00;;;;;7.95;64.44;102040.16;6340550;22;46079;-46
2022/12/01 07:15:10;;;;;;;;;50.00;37.75;;;;;7.94;64.43;102038.41;6340886;22;45179;-47
2022/12/01 07:17:35;;;;;;;;;52.00;40.75;;;;;7.92;64.34;102042.72;6341449;22;45468;-46
2022/12/01 07:20:02;;;;;;;;;54.00;40.75;;;;;7.94;64.17;102044.50;6341028;22;45163;-46
2022/12/01 07:22:28;;;;;;;;;52.75;40.00;;;;;7.93;64.55;102047.97;6340081;22;46148;-47
2022/12/01 07:24:53;;;;;;;;;55.25;41.50;;;;;7.90;64.28;102054.88;6340948;22;45221;-47
2022/12/01 07:27:19;;;;;;;;;50.75;40.50;;;;;7.92;64.50;102053.19;6339117;22;45884;-46
2022/12/01 07:29:45;;;;;;;;;56.50;43.25;;;;;7.90;64.55;102052.25;6340146;22;45380;-46
2022/12/01 07:32:10;;;;;;;;;51.75;39.25;;;;;7.90;64.27;102054.88;6340602;22;45246;-46
2022/12/01 07:34:36;;;;;;;;;52.25;38.00;;;;;7.92;64.51;102056.72;6340442;22;45846;-47
2022/12/01 07:37:01;;;;;;;;;47.50;38.25;;;;;7.90;64.38;102061.03;6339016;22;45362;-47
2022/12/01 07:39:26;;;;;;;;;49.75;38.00;;;;;7.91;64.24;102057.56;6338827;22;45373;-48
2022/12/01 07:41:52;;;;;;;;;46.00;34.75;;;;;7.90;64.34;102063.63;6340604;22;46338;-47
2022/12/01 07:44:17;;;;;;;;;43.00;36.50;;;;;7.90;64.38;102070.59;6340592;22;45095;-48
2022/12/01 07:46:42;;;;;;;;;50.75;39.00;;;;;7.87;64.38;102062.69;6338925;22;45362;-48
2022/12/01 07:49:09;;;;;;;;;51.00;37.75;;;;;7.88;64.32;102067.94;6339909;22;52697;-46
2022/12/01 07:51:34;;;;;;;;;51.50;39.00;;;;;7.89;64.47;102080.19;6339785;22;46245;-47
2022/12/01 07:54:02;;;;;;;;;42.25;36.25;;;;;7.90;64.39;102081.06;6340799;22;45275;-48
2022/12/01 07:56:28;;;;;;;;;41.25;34.75;;;;;7.88;64.24;102082.78;6340375;22;45284;-50
2022/12/01 07:58:54;;;;;;;;;54.25;39.25;;;;;7.88;64.30;102088.88;6338019;22;45513;-49
2022/12/01 08:01:22;;;;;;;;;46.25;39.00;;;;;7.87;64.38;102081.88;6340489;22;45909;-45
2022/12/01 08:03:52;;;;;;;;;43.25;36.25;;;;;7.86;64.25;102085.38;6340396;22;45220;-48
2022/12/01 08:06:18;;;;;;;;;45.50;37.00;;;;;7.86;64.54;102090.63;6340342;22;45443;-45
2022/12/01 08:08:44;;;;;;;;;50.75;40.00;;;;;7.85;64.34;102093.19;6339939;22;45484;-46
2022/12/01 08:11:15;;;;;;;;;48.75;39.50;;;;;7.85;64.45;102091.47;6311704;22;47127;-47
2022/12/01 08:13:41;;;;;;;;;44.00;36.00;;;;;7.80;64.47;102086.13;6340370;22;45235;-48
2022/12/01 08:16:10;;;;;;;;;49.25;39.00;;;;;7.85;64.38;102103.66;6340029;22;45326;-51
2022/12/01 08:18:37;;;;;;;;;46.50;37.00;;;;;7.84;64.39;102096.69;6340296;22;45267;-50
2022/12/01 08:21:04;;;;;;;;;49.75;40.75;;;;;7.83;64.20;102095.78;6339982;22;46128;-49
2022/12/01 08:23:29;;;;;;;;;47.25;38.00;;;;;7.84;64.43;102096.69;6340326;22;45172;-47
2022/12/01 08:25:58;;;;;;;;;44.25;32.25;;;;;7.83;64.54;102085.31;6312056;22;45378;-48
2022/12/01 08:28:24;;;;;;;;;39.50;30.00;;;;;7.81;64.48;102095.75;6340216;22;45472;-47
2022/12/01 08:30:49;;;;;;;;;42.25;36.50;;;;;7.83;64.31;102094.91;6340069;22;46104;-48
2022/12/01 08:33:14;;;;;;;;;43.50;36.25;;;;;7.84;64.28;102102.78;6340695;22;45235;-48
2022/12/01 08:35:40;;;;;;;;;52.25;38.75;;;;;7.83;64.38;102102.75;6340810;22;45212;-47
2022/12/01 08:38:05;;;;;;;;;46.50;36.50;;;;;7.83;64.30;102101.00;6311986;22;45279;-49
2022/12/01 08:40:30;;;;;;;;;49.25;38.00;;;;;7.82;64.60;102096.63;6339925;22;45528;-47
2022/12/01 08:42:56;;;;;;;;;43.50;36.75;;;;;7.83;64.57;102108.00;6311564;22;45276;-47
2022/12/01 08:45:22;;;;;;;;;49.00;36.75;;;;;7.83;64.26;102108.00;6312307;22;45285;-49
2022/12/01 08:47:47;;;;;;;;;47.50;37.25;;;;;7.83;64.31;102105.38;6312158;22;45220;-49
2022/12/01 08:50:13;;;;;;;;;43.75;36.25;;;;;7.85;64.40;102107.16;6339578;22;46112;-52
2022/12/01 08:52:38;;;;;;;;;49.75;36.00;;;;;7.85;64.35;102104.56;6339949;22;45151;-52
2022/12/01 08:55:04;;;;;;;;;40.25;36.00;;;;;7.84;64.41;102096.69;6340515;22;45417;-50
2022/12/01 08:57:30;;;;;;;;;35.50;32.75;;;;;7.88;64.44;102106.34;6340518;22;45278;-47
2022/12/01 08:59:55;;;;;;;;;40.00;34.25;;;;;7.89;64.53;102097.66;6340222;22;45979;-48
2022/12/01 09:02:21;;;;;;;;;39.50;35.75;;;;;7.87;64.54;102101.97;6341607;22;45186;-49
2022/12/01 09:04:46;;;;;;;;;35.50;34.00;;;;;7.89;64.42;102101.13;6341639;22;45343;-48
2022/12/01 09:07:15;;;;;;;;;44.25;36.75;;;;;7.91;64.60;102109.91;6341601;22;45380;-47
2022/12/01 09:09:40;;;;;;;;;43.00;34.00;;;;;7.93;64.46;102107.31;6340699;22;45873;-48
2022/12/01 09:12:07;;;;;;;;;40.50;34.75;;;;;7.90;64.58;102092.44;6341455;22;45282;-50
2022/12/01 09:14:37;;;;;;;;;38.25;34.50;;;;;7.95;64.27;102101.25;6341511;22;45103;-51
2022/12/01 09:17:02;;;;;;;;;43.50;36.00;;;;;7.98;64.43;102105.66;6340792;22;45272;-48
2022/12/01 09:19:28;;;;;;;;;34.75;32.50;;;;;8.00;64.71;102105.69;6340811;22;45861;-49
2022/12/01 09:21:53;;;;;;;;;36.25;29.00;;;;;8.01;64.33;102097.84;6340341;22;45140;-50
2022/12/01 09:24:19;;;;;;;;;40.25;33.75;;;;;8.04;64.35;102102.28;6339492;22;45634;-51
2022/12/01 09:26:44;;;;;;;;;40.50;33.75;;;;;8.05;64.59;102097.06;6341341;22;45461;-47
2022/12/01 09:29:12;;;;;;;;;52.50;37.00;;;;;8.08;64.71;102098.84;6340676;22;46795;-51
2022/12/01 09:31:38;;;;;;;;;48.00;37.00;;;;;8.08;64.62;102091.88;6341114;22;45249;-51
2022/12/01 09:34:06;;;;;;;;;50.00;36.00;;;;;8.15;64.47;102105.97;6339927;22;45210;-48
2022/12/01 09:36:33;;;;;;;;;41.75;34.75;;;;;8.18;64.44;102099.91;6339047;22;45533;-48
2022/12/01 09:38:59;;;;;;;;;45.25;34.00;;;;;8.20;64.49;102106.03;6338726;22;48153;-49
2022/12/01 09:41:33;;;;;;;;;48.25;35.75;;;;;8.24;64.44;102102.63;6341180;22;45245;-49
2022/12/01 09:44:12;;;;;;;;;42.50;36.25;;;;;8.27;64.46;102105.28;6340586;22;45351;-48
2022/12/01 09:46:51;;;;;;;;;45.75;36.00;;;;;8.27;64.78;102107.91;6341290;22;45227;-47
2022/12/01 09:49:29;;;;;;;;;44.00;36.50;;;;;8.35;64.65;102113.28;6340388;22;46127;-49
2022/12/01 09:51:55;;;;;;;;;41.75;33.25;;;;;8.36;64.62;102110.66;6341134;22;44796;-51
2022/12/01 09:54:20;;;;;;;;;40.00;35.00;;;;;8.38;64.69;102111.59;6341463;22;45615;-50
2022/12/01 09:56:51;;;;;;;;;44.50;36.50;;;;;8.43;64.64;102116.91;6340927;22;45196;-48
2022/12/01 09:59:26;;;;;;;;;36.25;34.25;;;;;8.38;64.73;102100.25;6339452;22;45340;-49
2022/12/01 10:01:58;;;;;;;;;39.25;29.25;;;;;8.47;64.50;102113.53;6341040;22;45204;-48
2022/12/01 10:04:37;;;;;;;;;41.50;35.25;;;;;8.53;64.66;102116.25;6341224;22;45195;-47
2022/12/01 10:07:17;;;;;;;;;44.00;35.50;;;;;8.59;64.68;102112.81;6340373;22;45356;-48
2022/12/01 10:09:50;;;;;;;;;39.25;34.00;;;;;8.61;64.44;102111.13;6340921;22;46396;-47
2022/12/01 10:12:18;;;;;;;;;37.75;33.00;;;;;8.65;64.72;102105.06;6341055;22;45252;-46
2022/12/01 10:14:45;;;;;;;;;39.00;31.25;;;;;8.69;64.42;102108.63;6340908;22;45109;-47
2022/12/01 10:17:26;;;;;;;;;47.00;35.75;;;;;8.72;64.56;102096.44;6339287;22;45206;-49
2022/12/01 10:20:22;;;;;;;;;39.50;34.00;;;;;8.77;64.58;102099.16;6340285;22;47127;-48
2022/12/01 10:23:21;;;;;;;;;37.75;33.50;;;;;8.82;64.63;102096.56;6341053;22;45169;-49
2022/12/01 10:25:58;;;;;;;;;39.50;33.75;;;;;8.84;64.30;102089.63;6338737;22;45480;-49
2022/12/01 10:28:32;;;;;;;;;38.50;33.00;;;;;8.87;64.51;102093.16;6340970;22;45670;-48
2022/12/01 10:31:10;;;;;;;;;35.75;31.00;;;;;8.92;64.63;102088.00;6340778;22;45285;-50
2022/12/01 10:33:57;;;;;;;;;34.25;31.00;;;;;8.97;64.55;102088.94;6341207;22;45283;-46
2022/12/01 10:36:24;;;;;;;;;44.50;33.75;;;;;9.01;64.48;102085.50;6341049;22;45160;-48
2022/12/01 10:38:50;;;;;;;;;40.00;32.50;;;;;9.03;64.56;102083.78;6340547;22;45164;-47
2022/12/01 10:41:19;;;;;;;;;39.25;30.50;;;;;9.05;64.32;102079.44;6338555;22;46484;-50
2022/12/01 10:43:49;;;;;;;;;43.50;32.75;;;;;9.10;64.31;102079.50;6340933;22;45270;-50
2022/12/01 10:46:28;;;;;;;;;41.75;35.75;;;;;9.14;64.12;102083.03;6340949;22;45288;-48
2022/12/01 10:48:59;;;;;;;;;37.75;33.25;;;;;9.16;64.19;102078.72;6365089;22;45350;-49
2022/12/01 10:51:26;;;;;;;;;34.50;30.00;;;;;9.14;64.10;102072.56;6340410;22;46287;-48
2022/12/01 10:54:22;;;;;;;;;42.75;33.00;;;;;9.21;64.06;102070.03;6340766;22;45157;-49
2022/12/01 10:56:53;;;;;;;;;41.75;32.50;;;;;9.24;64.07;102074.44;6327100;22;45789;-47
2022/12/01 10:59:30;;;;;;;;;41.50;32.50;;;;;9.26;64.24;102067.47;6340707;22;45270;-49
2022/12/01 11:01:57;;;;;;;;;43.50;35.25;;;;;9.29;63.85;102072.75;6340826;22;45155;-49
2022/12/01 11:04:46;;;;;;;;;42.00;31.75;;;;;9.24;64.10;102048.19;6340686;22;45249;-51
2022/12/01 11:07:21;;;;;;;;;45.00;35.25;;;;;9.35;64.00;102064.06;6340751;22;45235;-52
2022/12/01 11:09:59;;;;;;;;;48.00;36.50;;;;;9.36;63.89;102058.84;6340653;22;45347;-51
2022/12/01 11:12:24;;;;;;;;;33.50;27.25;;;;;9.43;64.11;102059.78;6340600;22;45218;-49
2022/12/01 11:14:54;;;;;;;;;35.25;29.25;;;;;9.46;64.13;102056.31;6340682;22;45209;-50
2022/12/01 11:17:25;;;;;;;;;43.00;32.75;;;;;9.49;64.13;102053.75;6340696;22;45247;-50
2022/12/01 11:19:50;;;;;;;;;38.25;32.00;;;;;9.52;63.92;102053.75;6340118;22;45349;-48
2022/12/01 11:22:24;;;;;;;;;40.00;33.25;;;;;9.56;63.81;102058.19;6340294;22;45771;-52
2022/12/01 11:24:52;;;;;;;;;35.50;32.50;;;;;9.58;63.96;102049.47;6340981;22;45473;-50
2022/12/01 11:27:49;;;;;;;;;35.50;29.75;;;;;9.63;63.77;102052.13;6340519;22;45267;-50
2022/12/01 11:30:23;;;;;;;;;37.75;31.75;;;;;9.63;63.96;102038.16;6329169;22;45443;-48
2022/12/01 11:32:58;;;;;;;;;37.00;31.25;;;;;9.68;63.93;102049.56;6340517;22;45992;-47